Time;durP1;ratioP1;P1;durP2;ratioP2;P2;SDS_P1;SDS_P2;PMS_P1;PMS_P2;Temp;Humidity;BMP_temperature;BMP_pressure;BME280_temperature;BME280_humidity;BME280_pressure;Samples;Min_cycle;Max_cycle;Signal;HPM_P1;HPM_P2
2022/03/13 01:25:29;;;;;;;29.92;16.60;;;3.70;84.10;;;;;;4836875;27;20330;-82
2022/03/13 01:27:57;;;;;;;27.35;15.88;;;3.60;83.80;;;;;;4916350;29;20075;-82
2022/03/13 01:30:25;;;;;;;31.27;17.30;;;3.60;84.00;;;;;;4951598;29;20038;-81
2022/03/13 01:32:54;;;;;;;28.77;17.13;;;3.60;85.10;;;;;;4955939;29;20035;-82
2022/03/13 01:35:22;;;;;;;32.30;17.83;;;3.50;85.10;;;;;;4942726;29;20032;-83
2022/03/13 01:37:48;;;;;;;31.98;18.65;;;3.50;85.50;;;;;;4993507;23;20055;-82
2022/03/13 01:40:38;;;;;;;33.25;20.08;;;3.40;85.50;;;;;;5132783;23;20291;-83
2022/03/13 01:43:04;;;;;;;34.08;18.73;;;3.40;85.60;;;;;;4948837;29;20063;-83
2022/03/13 01:45:30;;;;;;;32.47;17.98;;;3.40;86.10;;;;;;4955081;29;20344;-83
2022/03/13 01:47:57;;;;;;;29.85;16.92;;;3.30;85.40;;;;;;4950636;29;20027;-83
2022/03/13 01:50:24;;;;;;;30.10;17.77;;;3.30;85.30;;;;;;4934394;29;20103;-82
2022/03/13 01:52:52;;;;;;;29.10;17.75;;;3.30;86.10;;;;;;4968015;29;20031;-83
2022/03/13 01:55:18;;;;;;;30.55;17.10;;;3.20;85.60;;;;;;4968094;29;20015;-82
2022/03/13 01:57:47;;;;;;;28.83;16.88;;;3.20;85.80;;;;;;4934223;29;20105;-83
2022/03/13 02:00:14;;;;;;;32.63;17.35;;;3.10;86.40;;;;;;4966025;29;20042;-82
2022/03/13 02:02:48;;;;;;;30.95;15.82;;;3.00;85.90;;;;;;4950027;29;20027;-82
2022/03/13 02:05:27;;;;;;;30.10;17.05;;;3.00;85.70;;;;;;4965489;29;20078;-82
2022/03/13 02:07:53;;;;;;;26.30;14.93;;;2.90;85.70;;;;;;4966279;29;20309;-81
2022/03/13 02:10:20;;;;;;;29.02;15.43;;;2.90;85.30;;;;;;4969892;29;20025;-82
2022/03/13 02:12:52;;;;;;;27.42;14.90;;;2.90;84.70;;;;;;4971476;29;20031;-81
2022/03/13 02:15:46;;;;;;;29.08;15.35;;;2.90;85.20;;;;;;4965930;29;20035;-81
2022/03/13 02:18:17;;;;;;;26.23;15.23;;;2.80;84.90;;;;;;4948191;29;20030;-81
2022/03/13 02:20:47;;;;;;;27.98;15.13;;;2.80;84.40;;;;;;4965568;29;20255;-82
2022/03/13 02:23:24;;;;;;;28.73;15.18;;;2.80;84.20;;;;;;4948444;29;20074;-83
2022/03/13 02:26:42;;;;;;;25.48;14.93;;;2.80;84.00;;;;;;4966043;29;20034;-82
2022/03/13 02:29:15;;;;;;;26.25;15.38;;;2.80;84.40;;;;;;4933242;29;20279;-82
2022/03/13 02:31:44;;;;;;;28.20;16.00;;;2.70;84.70;;;;;;4932838;29;20058;-83
2022/03/13 02:34:13;;;;;;;29.30;15.52;;;2.70;85.10;;;;;;4965506;29;20070;-83
2022/03/13 02:36:54;;;;;;;25.90;14.25;;;2.70;84.80;;;;;;4964834;29;20023;-82
2022/03/13 02:39:20;;;;;;;31.75;16.83;;;2.70;84.20;;;;;;4965549;29;20058;-82
2022/03/13 02:41:48;;;;;;;25.33;14.73;;;2.60;84.00;;;;;;4964309;28;20058;-83
2022/03/13 02:44:18;;;;;;;29.73;15.60;;;2.60;84.50;;;;;;4963945;29;20058;-83
2022/03/13 02:46:59;;;;;;;28.65;15.27;;;2.60;84.50;;;;;;4964225;29;20102;-83
2022/03/13 02:49:35;;;;;;;27.52;14.52;;;2.50;84.50;;;;;;4963913;29;20039;-83
2022/03/13 02:52:12;;;;;;;28.70;15.52;;;2.50;84.90;;;;;;4945435;29;20325;-83
2022/03/13 02:54:38;;;;;;;26.73;14.50;;;2.40;85.40;;;;;;4946469;29;20043;-82
2022/03/13 02:57:14;;;;;;;24.65;14.32;;;2.50;85.70;;;;;;4929318;29;20066;-83
2022/03/13 02:59:40;;;;;;;26.15;14.52;;;2.40;84.40;;;;;;4946027;29;20030;-82
2022/03/13 03:02:18;;;;;;;24.25;12.93;;;2.40;84.00;;;;;;4941467;29;20036;-81
2022/03/13 03:05:12;;;;;;;24.63;13.32;;;2.30;84.00;;;;;;4929430;29;20083;-82
2022/03/13 03:07:41;;;;;;;24.58;12.77;;;2.30;83.60;;;;;;4928872;29;20031;-82
2022/03/13 03:10:15;;;;;;;23.98;13.57;;;2.30;84.40;;;;;;4928836;29;20197;-82
2022/03/13 03:12:46;;;;;;;22.00;12.07;;;2.20;84.50;;;;;;4928983;29;20321;-81
2022/03/13 03:15:18;;;;;;;24.88;13.27;;;2.30;83.90;;;;;;4944455;29;20027;-81
2022/03/13 03:17:47;;;;;;;27.10;13.60;;;2.30;83.80;;;;;;4944908;29;20103;-82
2022/03/13 03:20:14;;;;;;;21.90;12.65;;;2.30;83.60;;;;;;4944119;29;20032;-81
2022/03/13 03:22:47;;;;;;;22.23;13.30;;;2.30;83.30;;;;;;4929915;29;20035;-82
2022/03/13 03:25:30;;;;;;;24.00;13.57;;;2.30;83.30;;;;;;4944074;29;20103;-82
2022/03/13 03:27:59;;;;;;;21.00;12.77;;;2.40;83.20;;;;;;4928287;29;20258;-82
2022/03/13 03:30:27;;;;;;;22.58;12.63;;;2.30;83.10;;;;;;4943203;29;20195;-82
2022/03/13 03:32:53;;;;;;;22.40;13.40;;;2.20;83.30;;;;;;4944171;29;20083;-82
2022/03/13 03:35:22;;;;;;;24.17;12.57;;;2.20;83.30;;;;;;4944020;29;20050;-81
2022/03/13 03:37:53;;;;;;;23.17;13.25;;;2.20;82.90;;;;;;4944228;29;20086;-82
2022/03/13 03:40:26;;;;;;;22.10;12.77;;;2.20;83.80;;;;;;4944392;29;20050;-81
2022/03/13 03:42:56;;;;;;;23.65;12.57;;;2.20;83.90;;;;;;4945219;29;20265;-82
2022/03/13 03:45:25;;;;;;;22.70;12.27;;;2.10;83.80;;;;;;4943582;29;20051;-82
2022/03/13 03:47:51;;;;;;;23.52;13.02;;;2.20;83.60;;;;;;4944368;29;20043;-82
2022/03/13 03:50:18;;;;;;;21.88;12.90;;;2.20;83.40;;;;;;4943393;29;20027;-83
2022/03/13 03:52:46;;;;;;;20.70;12.20;;;2.20;83.00;;;;;;4944065;29;20031;-82
2022/03/13 03:55:14;;;;;;;22.30;13.25;;;2.30;83.20;;;;;;4943676;29;20028;-83
2022/03/13 03:57:43;;;;;;;23.33;13.43;;;2.20;83.10;;;;;;4927581;29;20183;-82
2022/03/13 04:00:10;;;;;;;25.52;14.57;;;2.30;83.20;;;;;;4943503;29;20071;-82
2022/03/13 04:02:43;;;;;;;21.42;13.10;;;2.20;83.60;;;;;;4928110;29;20055;-82
2022/03/13 04:05:09;;;;;;;24.52;13.35;;;2.00;83.80;;;;;;4943745;29;20050;-82
2022/03/13 04:07:36;;;;;;;26.45;13.95;;;1.90;84.30;;;;;;4927591;29;20197;-82
2022/03/13 04:10:10;;;;;;;23.50;13.30;;;1.90;84.80;;;;;;4943537;29;20055;-82
2022/03/13 04:13:02;;;;;;;23.13;12.38;;;2.00;84.70;;;;;;4940532;29;20034;-82
2022/03/13 04:15:27;;;;;;;24.48;13.95;;;2.00;84.80;;;;;;4943596;29;20102;-83
2022/03/13 04:17:55;;;;;;;26.20;13.65;;;2.00;85.10;;;;;;4943680;29;20019;-82
2022/03/13 04:20:24;;;;;;;23.70;13.68;;;2.00;85.10;;;;;;4943066;29;20024;-82
2022/03/13 04:22:50;;;;;;;24.25;13.45;;;2.00;85.10;;;;;;4943597;29;20086;-82
2022/03/13 04:25:17;;;;;;;22.85;13.15;;;1.90;84.20;;;;;;4943519;29;20047;-81
2022/03/13 04:27:44;;;;;;;22.98;13.40;;;2.00;84.20;;;;;;4943492;29;20059;-80
2022/03/13 04:30:13;;;;;;;22.55;13.38;;;1.90;84.00;;;;;;4944527;29;20040;-82
2022/03/13 04:32:41;;;;;;;21.83;12.90;;;1.90;84.40;;;;;;4942508;29;20050;-82
2022/03/13 04:35:27;;;;;;;21.63;12.25;;;1.90;84.00;;;;;;4936460;29;20028;-83
2022/03/13 04:37:52;;;;;;;24.88;13.88;;;1.90;84.00;;;;;;4907881;29;20047;-82
2022/03/13 04:40:18;;;;;;;22.35;12.88;;;1.90;84.10;;;;;;4923238;29;20326;-81
2022/03/13 04:42:45;;;;;;;26.75;14.85;;;1.90;84.20;;;;;;4923984;29;20042;-81
2022/03/13 04:45:12;;;;;;;24.33;13.50;;;1.90;84.70;;;;;;4923218;29;20083;-82
2022/03/13 04:48:03;;;;;;;21.77;13.23;;;2.00;84.20;;;;;;4910271;29;20144;-82
2022/03/13 04:50:29;;;;;;;24.40;13.90;;;1.90;84.50;;;;;;4924175;29;20048;-82
2022/03/13 04:52:54;;;;;;;24.08;12.88;;;1.90;83.80;;;;;;4930110;29;20072;-82
2022/03/13 04:55:29;;;;;;;24.15;14.10;;;1.90;83.80;;;;;;4907443;29;20147;-83
2022/03/13 04:57:56;;;;;;;26.45;14.85;;;1.90;84.40;;;;;;4923807;29;20043;-82
2022/03/13 05:00:28;;;;;;;24.80;14.13;;;1.80;84.70;;;;;;4923229;29;20330;-82
2022/03/13 05:02:55;;;;;;;28.08;14.45;;;1.80;85.20;;;;;;4923772;29;20064;-82
2022/03/13 05:05:26;;;;;;;29.98;15.02;;;1.70;85.30;;;;;;4923177;29;20228;-82
2022/03/13 05:08:49;;;;;;;27.45;14.80;;;1.70;85.00;;;;;;4923419;29;20227;-82
2022/03/13 05:11:17;;;;;;;25.80;14.00;;;1.70;85.80;;;;;;4853151;29;20041;-81
2022/03/13 05:13:47;;;;;;;28.20;14.98;;;1.70;85.50;;;;;;4898053;29;20137;-81
2022/03/13 05:16:13;;;;;;;23.45;13.48;;;1.70;85.70;;;;;;4914719;29;20125;-81
2022/03/13 05:18:45;;;;;;;29.25;15.18;;;1.70;85.10;;;;;;4917883;29;20024;-82
2022/03/13 05:21:11;;;;;;;26.75;14.73;;;1.70;85.50;;;;;;4917622;29;20028;-82
2022/03/13 05:23:37;;;;;;;23.95;13.43;;;1.70;85.50;;;;;;4905725;29;20040;-82
2022/03/13 05:26:05;;;;;;;25.48;15.05;;;1.70;85.20;;;;;;4905072;29;20083;-82
2022/03/13 05:28:31;;;;;;;;;;;1.70;85.60;;;;;;4904188;29;20391;-82
2022/03/13 05:31:12;;;;;;;27.63;14.30;;;1.70;85.60;;;;;;4904280;29;19970;-83
2022/03/13 05:33:37;;;;;;;23.92;14.43;;;1.70;85.90;;;;;;4903922;29;20135;-82
2022/03/13 05:36:24;;;;;;;28.42;15.88;;;1.70;85.50;;;;;;4866588;29;20033;-83
2022/03/13 05:38:50;;;;;;;25.63;14.73;;;1.70;86.90;;;;;;4867064;29;20133;-82
2022/03/13 05:41:20;;;;;;;28.17;16.10;;;1.70;87.70;;;;;;4867845;29;20049;-82
2022/03/13 05:43:48;;;;;;;30.77;16.73;;;1.70;87.80;;;;;;4866760;29;20319;-82
2022/03/13 05:46:14;;;;;;;32.95;16.98;;;1.70;88.00;;;;;;4866795;29;20053;-81
2022/03/13 05:48:42;;;;;;;33.65;17.70;;;1.70;87.90;;;;;;4894994;29;20037;-82
2022/03/13 05:51:11;;;;;;;;;;;1.70;87.80;;;;;;4873467;29;20029;-83
2022/03/13 05:53:37;;;;;;;34.05;17.20;;;1.70;88.50;;;;;;4890465;29;19911;-82
2022/03/13 05:56:08;;;;;;;37.05;17.42;;;1.70;87.70;;;;;;4907497;29;20092;-82
2022/03/13 05:58:55;;;;;;;38.08;17.98;;;1.80;88.00;;;;;;4870105;29;20037;-82
2022/03/13 06:01:30;;;;;;;34.15;17.65;;;1.80;88.30;;;;;;4867690;29;20037;-83
2022/03/13 06:07:50;;;;;;;30.45;17.83;;;1.90;88.30;;;;;;4852048;29;20093;-85
2022/03/13 06:10:17;;;;;;;29.45;16.17;;;2.00;88.60;;;;;;4840866;29;20058;-83
2022/03/13 06:12:43;;;;;;;32.33;18.40;;;2.00;88.50;;;;;;4842620;29;20270;-84
2022/03/13 06:15:14;;;;;;;31.92;17.85;;;2.00;89.60;;;;;;4887052;29;20111;-84
2022/03/13 06:17:42;;;;;;;33.08;18.20;;;2.00;88.80;;;;;;4888534;29;20037;-84
2022/03/13 06:20:11;;;;;;;29.93;17.17;;;2.10;89.00;;;;;;4890966;29;20037;-82
2022/03/13 06:22:45;;;;;;;30.85;16.92;;;2.20;88.30;;;;;;4908470;29;20161;-83
2022/03/13 06:25:22;;;;;;;30.02;17.33;;;2.20;88.30;;;;;;4907210;29;20045;-82
2022/03/13 06:27:47;;;;;;;30.77;16.85;;;2.30;88.60;;;;;;4906736;29;20032;-83
2022/03/13 06:30:19;;;;;;;29.38;17.40;;;2.40;88.90;;;;;;4891901;29;20033;-83
2022/03/13 06:32:50;;;;;;;30.77;16.75;;;2.40;88.40;;;;;;4906262;29;20072;-81
2022/03/13 06:35:21;;;;;;;30.33;17.50;;;2.50;87.90;;;;;;4918592;29;20454;-84
2022/03/13 06:37:49;;;;;;;32.25;17.20;;;2.60;87.20;;;;;;4948276;29;20038;-82
2022/03/13 06:40:20;;;;;;;28.15;17.30;;;2.70;87.40;;;;;;4948672;29;20090;-83
2022/03/13 06:42:53;;;;;;;29.45;16.80;;;2.80;86.70;;;;;;4948200;29;20042;-82
2022/03/13 06:45:22;;;;;;;30.83;17.55;;;2.90;85.90;;;;;;4947969;28;20318;-81
2022/03/13 06:48:15;;;;;;;34.95;17.90;;;2.90;85.90;;;;;;4947982;29;20302;-81
2022/03/13 06:53:55;;;;;;;27.40;16.30;;;3.10;85.10;;;;;;4869503;29;20346;-82
2022/03/13 06:56:40;;;;;;;30.60;16.45;;;3.30;84.40;;;;;;4869034;29;20354;-81
2022/03/13 06:59:19;;;;;;;27.63;14.95;;;3.40;84.00;;;;;;4869063;29;20132;-83
2022/03/13 07:37:55;;;;;;;17.80;9.60;;;5.10;67.70;;;;;;4885761;29;20367;-84
2022/03/13 07:45:16;;;;;;;18.80;9.33;;;5.40;67.00;;;;;;5757794;23;20429;31
2022/03/13 08:13:06;;;;;;;19.27;11.60;;;6.30;67.90;;;;;;5724511;23;21528;-82
2022/03/13 08:15:38;;;;;;;21.27;12.20;;;6.40;67.40;;;;;;4946078;28;20035;-82
2022/03/13 08:18:16;;;;;;;18.00;11.68;;;6.50;67.20;;;;;;4947372;29;20035;-80
2022/03/13 08:21:08;;;;;;;22.83;11.98;;;6.70;67.00;;;;;;4962871;29;20050;-79
2022/03/13 08:23:40;;;;;;;20.17;11.23;;;6.90;66.80;;;;;;4947600;29;20119;-83
2022/03/13 08:26:06;;;;;;;17.63;10.95;;;7.10;66.40;;;;;;4964711;29;20023;-79
2022/03/13 08:28:32;;;;;;;20.40;12.63;;;7.20;66.90;;;;;;4964196;29;20316;-78
2022/03/13 08:30:58;;;;;;;17.52;11.68;;;7.30;65.20;;;;;;4963430;28;20039;-80
2022/03/13 08:33:27;;;;;;;17.90;11.38;;;7.40;65.40;;;;;;4962836;29;20325;-82
2022/03/13 08:35:53;;;;;;;21.27;12.20;;;7.50;65.00;;;;;;4962757;29;20023;-80
2022/03/13 08:38:40;;;;;;;18.02;11.07;;;7.60;65.20;;;;;;4964004;29;20222;-80
2022/03/13 08:41:12;;;;;;;19.70;12.20;;;7.70;65.10;;;;;;4963272;29;20042;-81
2022/03/13 08:43:38;;;;;;;19.42;11.63;;;7.90;64.50;;;;;;4963479;29;20043;-80
2022/03/13 08:46:05;;;;;;;19.25;11.85;;;8.00;64.10;;;;;;4964251;28;20039;-81
2022/03/13 08:49:16;;;;;;;19.38;11.88;;;8.00;63.80;;;;;;4964705;29;20035;-80
2022/03/13 08:52:13;;;;;;;18.38;11.82;;;8.10;64.60;;;;;;4964127;29;20042;-80
2022/03/13 08:55:17;;;;;;;18.58;11.77;;;8.30;63.90;;;;;;4945762;29;20031;-82
2022/03/13 09:01:31;;;;;;;21.25;12.48;;;8.50;63.40;;;;;;4969477;28;20038;-82
2022/03/13 09:04:11;;;;;;;20.05;12.88;;;8.60;63.70;;;;;;4975113;28;20038;-81
2022/03/13 09:06:43;;;;;;;21.40;12.18;;;8.80;63.50;;;;;;4960450;28;20031;-80
2022/03/13 09:09:23;;;;;;;20.20;12.60;;;9.00;64.10;;;;;;4961938;28;20036;-81
2022/03/13 09:15:28;;;;;;;20.50;12.60;;;9.20;63.50;;;;;;4905023;29;20052;-81
2022/03/13 09:21:34;;;;;;;20.75;12.90;;;9.60;62.70;;;;;;4795090;30;20046;-80
2022/03/13 09:24:03;;;;;;;23.73;13.65;;;9.90;62.50;;;;;;4794861;29;20035;-79
2022/03/13 09:26:29;;;;;;;19.50;12.85;;;10.00;61.70;;;;;;4794999;29;20071;-80
2022/03/13 09:28:55;;;;;;;23.48;13.10;;;10.30;63.90;;;;;;4797155;29;20043;-80
2022/03/13 09:31:34;;;;;;;19.75;13.48;;;10.40;64.80;;;;;;4798542;29;20055;-81
2022/03/13 09:34:00;;;;;;;22.58;14.10;;;10.60;62.70;;;;;;4798060;30;20055;-80
2022/03/13 09:36:25;;;;;;;22.88;13.73;;;10.60;61.00;;;;;;4798033;29;20073;-80
2022/03/13 09:38:52;;;;;;;22.17;13.90;;;10.60;62.50;;;;;;4797859;30;20039;-80
2022/03/13 09:41:19;;;;;;;22.52;14.05;;;10.60;61.20;;;;;;4798146;29;20031;-79
2022/03/13 09:43:45;;;;;;;23.65;13.65;;;10.80;63.20;;;;;;4797814;30;20037;-80
2022/03/13 09:46:12;;;;;;;23.85;15.20;;;11.00;63.50;;;;;;4822537;29;20058;-81
2022/03/13 09:48:44;;;;;;;20.27;13.52;;;11.10;60.80;;;;;;4818568;29;20034;-81
2022/03/13 09:51:10;;;;;;;22.92;14.30;;;11.30;60.50;;;;;;4818572;29;20321;-82
2022/03/13 09:53:37;;;;;;;21.48;13.25;;;11.50;61.60;;;;;;4818740;29;20050;-81
2022/03/13 09:56:05;;;;;;;22.95;14.27;;;11.60;62.00;;;;;;4829818;29;20034;-82
2022/03/13 09:58:34;;;;;;;22.35;13.75;;;11.60;60.90;;;;;;4902062;29;20035;-81
2022/03/13 10:01:18;;;;;;;22.50;15.23;;;11.80;63.10;;;;;;4949001;29;20050;-81
2022/03/13 10:03:44;;;;;;;23.55;14.48;;;11.90;59.40;;;;;;4949870;29;20106;-81
2022/03/13 10:06:10;;;;;;;22.35;14.45;;;12.00;59.00;;;;;;4950047;29;20038;-81
2022/03/13 10:08:39;;;;;;;22.98;14.88;;;12.00;61.00;;;;;;4950163;29;20031;-81
2022/03/13 10:11:07;;;;;;;23.55;14.43;;;12.10;59.10;;;;;;4949407;29;20082;-81
2022/03/13 10:14:05;;;;;;;22.38;14.00;;;12.40;59.70;;;;;;4941173;29;20157;-81
2022/03/13 10:16:37;;;;;;;22.55;14.15;;;12.70;59.10;;;;;;4961774;28;20314;-81
2022/03/13 10:19:19;;;;;;;25.77;15.38;;;12.80;58.20;;;;;;4947158;29;20045;-81
2022/03/13 10:22:13;;;;;;;22.20;14.18;;;12.90;58.80;;;;;;4946745;29;20039;-82
2022/03/13 10:24:44;;;;;;;22.30;13.98;;;13.10;58.70;;;;;;4947805;29;20266;-82
2022/03/13 10:27:18;;;;;;;23.35;14.40;;;13.30;59.30;;;;;;4947926;29;20043;-82
2022/03/13 10:32:29;;;;;;;24.35;15.30;;;13.60;56.80;;;;;;4948372;29;20054;-82
2022/03/13 10:34:57;;;;;;;24.33;15.05;;;13.60;56.70;;;;;;4947437;29;20020;-82
2022/03/13 10:37:38;;;;;;;26.23;15.02;;;13.80;57.60;;;;;;4958516;29;20032;-82
2022/03/13 10:40:19;;;;;;;25.15;15.80;;;13.80;56.10;;;;;;4950827;29;20035;-81
2022/03/13 10:45:59;;;;;;;23.67;15.00;;;14.10;56.50;;;;;;4967746;28;20472;-81
2022/03/13 10:48:56;;;;;;;;;;;;;;;;;;;;;
2022/03/13 10:51:48;;;;;;;25.95;15.45;;;14.40;55.20;;;;;;4967579;29;20083;-82
2022/03/13 10:55:14;;;;;;;22.95;15.80;;;14.60;55.90;;;;;;4952802;29;20113;-83
2022/03/13 10:58:07;;;;;;;25.45;16.38;;;14.80;55.80;;;;;;4951348;29;20023;-82
2022/03/13 11:01:04;;;;;;;26.20;16.77;;;14.90;54.00;;;;;;4957297;28;20039;-82
2022/03/13 11:03:31;;;;;;;25.25;16.05;;;15.20;53.90;;;;;;4966879;29;20031;-82
2022/03/13 11:06:14;;;;;;;25.80;16.55;;;15.50;53.50;;;;;;4948946;29;20016;-81
2022/03/13 11:09:02;;;;;;;23.40;15.77;;;16.20;52.40;;;;;;4965370;29;20046;-82
2022/03/13 11:11:34;;;;;;;24.40;16.52;;;17.00;51.30;;;;;;4950062;29;20094;-81
2022/03/13 11:14:01;;;;;;;28.33;17.13;;;17.80;50.50;;;;;;4966556;28;20039;-82
2022/03/13 11:16:33;;;;;;;27.15;17.75;;;18.50;49.60;;;;;;4945238;28;20098;-82
2022/03/13 11:19:08;;;;;;;25.25;16.95;;;19.00;48.70;;;;;;4929833;29;20202;-82
2022/03/13 11:21:42;;;;;;;25.80;17.20;;;19.50;49.70;;;;;;4914856;29;20255;-84
2022/03/13 11:24:10;;;;;;;23.00;17.10;;;20.30;47.50;;;;;;4946577;29;20203;-81
2022/03/13 11:26:44;;;;;;;26.33;18.40;;;21.00;47.10;;;;;;4914141;29;20062;-80
2022/03/13 11:29:36;;;;;;;21.40;16.33;;;21.60;46.00;;;;;;4929498;29;20030;-81
2022/03/13 11:32:50;;;;;;;24.10;17.88;;;22.60;46.70;;;;;;4912938;29;20329;-81
2022/03/13 11:40:08;;;;;;;20.95;17.00;;;23.50;43.50;;;;;;4906769;29;20031;-82
2022/03/13 12:05:38;;;;;;;20.57;16.50;;;28.50;39.50;;;;;;5959903;23;20022;-81
2022/03/13 12:08:22;;;;;;;19.60;16.92;;;28.40;38.80;;;;;;4913076;29;20039;-80
2022/03/13 12:15:05;;;;;;;21.55;17.92;;;28.20;38.10;;;;;;4946470;29;20078;-84
2022/03/13 12:21:21;;;;;;;21.75;18.15;;;29.50;37.80;;;;;;4945369;29;20218;-81
2022/03/13 12:23:48;;;;;;;22.38;18.23;;;29.50;37.60;;;;;;4911906;29;20031;-81
2022/03/13 12:41:14;;;;;;;;;;;30.60;36.40;;;;;;4965625;29;20026;-81
2022/03/13 12:44:00;;;;;;;19.60;17.00;;;31.20;37.20;;;;;;4947841;29;19911;-80
2022/03/13 13:02:21;;;;;;;21.17;16.25;;;33.00;36.40;;;;;;5161807;23;20114;-81
2022/03/13 13:04:52;;;;;;;18.88;16.60;;;33.00;35.40;;;;;;4961065;28;20059;-80
2022/03/13 13:15:13;;;;;;;20.15;16.48;;;33.00;35.40;;;;;;4963519;28;20058;-80
2022/03/13 13:17:41;;;;;;;17.77;15.68;;;33.70;34.90;;;;;;4950534;29;20282;-81
2022/03/13 13:20:18;;;;;;;17.23;14.90;;;33.70;35.40;;;;;;4949623;29;20058;-81
2022/03/13 13:22:44;;;;;;;18.40;15.20;;;34.10;35.50;;;;;;4950666;29;20238;-82
2022/03/13 13:25:11;;;;;;;16.77;14.27;;;34.50;34.70;;;;;;4933996;29;20039;-80
2022/03/13 13:27:43;;;;;;;18.45;15.40;;;34.80;35.00;;;;;;4934398;29;20023;-82
2022/03/13 13:30:30;;;;;;;19.27;15.38;;;34.30;34.60;;;;;;4948758;28;20229;-80
2022/03/13 13:33:01;;;;;;;18.63;16.27;;;33.60;34.90;;;;;;4949779;29;20254;-82
2022/03/13 13:35:29;;;;;;;17.40;14.68;;;34.30;34.50;;;;;;4934418;29;20027;-81
2022/03/13 13:37:58;;;;;;;18.77;14.77;;;34.90;34.40;;;;;;4966135;29;20039;-81
2022/03/13 14:11:40;;;;;;;14.07;12.57;;;36.60;33.50;;;;;;4928160;29;20060;-81
2022/03/13 14:14:07;;;;;;;16.63;14.60;;;36.10;33.50;;;;;;4894554;29;20032;-83
2022/03/13 14:16:34;;;;;;;16.42;13.75;;;36.40;33.40;;;;;;4912025;29;20103;-82
2022/03/13 14:18:59;;;;;;;15.85;14.15;;;35.80;33.80;;;;;;4912211;29;20032;-84
2022/03/13 14:30:37;;;;;;;15.88;13.52;;;35.80;34.10;;;;;;5728582;23;20055;-82
2022/03/13 14:33:03;;;;;;;16.23;12.07;;;35.50;33.60;;;;;;4955088;29;20103;-80
2022/03/13 14:35:29;;;;;;;16.10;13.40;;;36.00;33.10;;;;;;4965578;29;20031;-80
2022/03/13 14:37:54;;;;;;;14.75;12.50;;;35.80;33.20;;;;;;4949191;29;20377;-80
2022/03/13 14:44:02;;;;;;;14.88;13.00;;;35.40;33.30;;;;;;4966152;29;20090;-82
2022/03/13 14:46:31;;;;;;;15.55;11.82;;;36.30;33.10;;;;;;4945506;29;20040;-81
2022/03/13 14:48:57;;;;;;;14.05;12.55;;;36.40;34.00;;;;;;4929876;29;20186;-81
2022/03/13 14:51:25;;;;;;;14.32;12.10;;;37.40;33.20;;;;;;4914793;29;20227;-81
2022/03/13 14:53:51;;;;;;;15.60;12.77;;;37.20;33.50;;;;;;4930151;29;20039;-83
2022/03/13 14:56:17;;;;;;;13.52;11.77;;;36.60;33.70;;;;;;4913731;29;20179;-82
2022/03/13 14:58:42;;;;;;;14.15;10.93;;;36.10;33.30;;;;;;4929891;29;20039;-82
2022/03/13 15:01:08;;;;;;;12.10;9.52;;;36.40;33.00;;;;;;4928894;29;20035;-81
2022/03/13 15:03:35;;;;;;;12.18;10.68;;;37.00;33.70;;;;;;4930590;29;20038;-83
2022/03/13 15:06:01;;;;;;;13.35;11.10;;;36.80;33.00;;;;;;4929922;29;20066;-81
2022/03/13 15:08:28;;;;;;;14.70;12.40;;;35.80;32.70;;;;;;4945367;29;20292;-81
2022/03/13 15:15:08;;;;;;;13.80;12.18;;;34.90;33.70;;;;;;4946831;29;20056;-80
2022/03/13 15:17:35;;;;;;;12.98;11.57;;;34.10;34.00;;;;;;4945095;29;20042;-82
2022/03/13 15:20:00;;;;;;;14.55;12.75;;;34.60;34.40;;;;;;4929860;29;20210;-83
2022/03/13 15:22:26;;;;;;;16.27;13.60;;;34.80;33.70;;;;;;4945967;29;20107;-82
2022/03/13 15:24:53;;;;;;;15.70;11.98;;;34.80;33.70;;;;;;4946427;29;20090;-81
2022/03/13 15:27:19;;;;;;;14.27;11.45;;;34.50;34.10;;;;;;4945291;29;20131;-80
2022/03/13 15:29:45;;;;;;;16.27;12.45;;;34.80;33.90;;;;;;4947638;29;20063;-82
2022/03/13 15:32:11;;;;;;;14.18;12.20;;;34.70;33.70;;;;;;4897012;29;20063;-81
2022/03/13 15:34:36;;;;;;;15.10;12.13;;;34.10;34.40;;;;;;4926362;29;20036;-81
2022/03/13 15:37:02;;;;;;;14.15;11.50;;;34.00;34.00;;;;;;4927536;29;20050;-80
2022/03/13 15:39:29;;;;;;;16.08;13.00;;;33.30;34.30;;;;;;4926609;29;20106;-81
2022/03/13 15:41:56;;;;;;;15.35;12.98;;;33.00;34.30;;;;;;4912825;29;20020;-79
2022/03/13 15:44:43;;;;;;;18.27;13.70;;;32.00;34.50;;;;;;4921175;29;20145;-85
2022/03/13 15:47:09;;;;;;;16.17;13.50;;;31.90;34.70;;;;;;4912123;29;20043;-83
2022/03/13 15:53:55;;;;;;;17.08;13.23;;;31.10;35.00;;;;;;4888994;29;20043;-83
2022/03/13 16:00:15;;;;;;;16.50;12.70;;;31.30;35.20;;;;;;4886355;29;20273;-82
2022/03/13 16:02:56;;;;;;;18.95;12.68;;;31.10;35.20;;;;;;4890385;29;20236;-83
2022/03/13 16:09:09;;;;;;;16.35;12.77;;;30.90;35.20;;;;;;4863407;29;20316;-83
2022/03/13 16:15:25;;;;;;;16.40;12.52;;;30.80;35.20;;;;;;4850521;29;20033;-83
2022/03/13 16:18:16;;;;;;;15.55;12.88;;;30.70;35.30;;;;;;4839966;29;20114;-82
2022/03/13 16:20:44;;;;;;;17.50;13.70;;;30.70;35.10;;;;;;4850562;29;20052;-82
2022/03/13 16:23:12;;;;;;;16.52;12.98;;;30.50;35.50;;;;;;4850024;29;20037;-82
2022/03/13 16:25:47;;;;;;;18.17;12.95;;;30.40;35.30;;;;;;4867691;29;20024;-82
2022/03/13 16:28:16;;;;;;;14.05;11.88;;;30.10;35.80;;;;;;4908546;29;20044;-82
2022/03/13 16:30:42;;;;;;;15.00;11.77;;;30.30;35.50;;;;;;4930211;29;20043;-82
2022/03/13 16:33:12;;;;;;;16.48;12.50;;;30.00;35.20;;;;;;4916994;29;20230;-81
2022/03/13 16:35:38;;;;;;;13.60;11.07;;;29.80;35.70;;;;;;4894963;29;20066;-81
2022/03/13 16:38:04;;;;;;;15.60;11.70;;;29.20;36.10;;;;;;4894126;29;20051;-81
2022/03/13 16:41:07;;;;;;;15.68;12.10;;;28.10;35.80;;;;;;4923133;29;20040;-80
2022/03/13 16:43:49;;;;;;;14.93;11.65;;;26.00;37.60;;;;;;4891124;29;20238;-81
2022/03/13 16:46:15;;;;;;;20.38;13.32;;;24.40;39.30;;;;;;4874526;29;20035;-82
2022/03/13 16:48:48;;;;;;;15.75;12.13;;;23.10;40.00;;;;;;4891742;29;20071;-80
2022/03/13 16:51:14;;;;;;;15.00;11.93;;;22.10;40.80;;;;;;4895882;29;20035;-79
2022/03/13 16:54:11;;;;;;;15.55;11.57;;;21.40;41.40;;;;;;4885186;29;20028;-81
2022/03/13 16:56:40;;;;;;;18.83;12.40;;;20.60;42.80;;;;;;4999720;23;20060;-80
2022/03/13 16:59:09;;;;;;;16.67;11.27;;;19.90;43.60;;;;;;4921108;29;20020;-84
2022/03/13 17:01:38;;;;;;;16.83;11.73;;;19.50;45.50;;;;;;4925445;29;20058;-82
2022/03/13 17:04:05;;;;;;;16.88;11.57;;;19.20;44.60;;;;;;4944882;29;20076;-83
2022/03/13 17:06:31;;;;;;;16.50;11.82;;;18.90;45.20;;;;;;4914436;29;20107;-82
2022/03/13 17:08:57;;;;;;;18.05;12.15;;;18.60;45.90;;;;;;4909856;29;20180;-83
2022/03/13 17:11:23;;;;;;;18.38;12.02;;;18.40;45.60;;;;;;4926193;29;20140;-84
2022/03/13 17:13:49;;;;;;;19.10;12.40;;;18.10;46.10;;;;;;4909881;29;20060;-83
2022/03/13 17:16:16;;;;;;;17.67;11.98;;;17.90;46.20;;;;;;4908836;29;20385;-83
2022/03/13 17:18:45;;;;;;;18.45;12.27;;;17.80;47.10;;;;;;4909279;29;20222;-80
2022/03/13 17:21:42;;;;;;;19.35;12.00;;;17.70;47.00;;;;;;4909543;29;20027;-84
2022/03/13 17:24:11;;;;;;;17.77;12.02;;;17.40;47.30;;;;;;4905933;29;20110;-83
2022/03/13 17:26:43;;;;;;;21.17;13.93;;;17.30;47.70;;;;;;4925208;29;20104;-82
2022/03/13 17:29:39;;;;;;;21.98;13.07;;;17.20;48.70;;;;;;4925360;29;20337;-83
2022/03/13 17:32:06;;;;;;;20.70;12.32;;;17.20;49.30;;;;;;4885542;29;20043;-84
2022/03/13 17:34:39;;;;;;;18.27;12.23;;;17.10;48.50;;;;;;4886522;29;20387;-82
2022/03/13 17:37:06;;;;;;;19.13;12.25;;;16.90;48.70;;;;;;4886464;29;20052;-82
2022/03/13 17:39:32;;;;;;;18.90;12.40;;;16.80;49.90;;;;;;4857908;29;20041;-80
2022/03/13 17:41:58;;;;;;;20.52;13.27;;;16.80;49.30;;;;;;4887145;29;20117;-83
2022/03/13 17:45:05;;;;;;;20.05;12.60;;;16.70;49.40;;;;;;4870687;29;20064;-83
2022/03/13 17:48:02;;;;;;;18.35;12.02;;;16.60;49.60;;;;;;4803367;29;20047;-81
2022/03/13 17:50:29;;;;;;;25.40;12.87;;;16.40;49.80;;;;;;4819192;29;20034;-81
2022/03/13 17:52:59;;;;;;;23.40;13.88;;;16.10;51.00;;;;;;4820383;29;20030;-81
2022/03/13 17:55:38;;;;;;;22.13;14.25;;;15.80;50.90;;;;;;4804937;29;20045;-81
2022/03/13 17:58:14;;;;;;;21.48;13.63;;;15.60;51.80;;;;;;4815660;29;20258;-80
2022/03/13 18:04:33;;;;;;;23.67;14.90;;;15.30;52.70;;;;;;4834508;29;20095;-81
2022/03/13 18:34:06;;;;;;;17.00;9.98;;;13.80;53.30;;;;;;5181648;23;20118;-82
2022/03/13 18:36:46;;;;;;;18.17;10.90;;;13.80;52.00;;;;;;4911980;29;20358;-80
2022/03/13 18:54:13;;;;;;;13.27;8.57;;;13.20;52.30;;;;;;4948516;29;20034;-81
2022/03/13 18:56:39;;;;;;;16.05;9.60;;;13.00;53.00;;;;;;4963038;29;20031;-80
2022/03/13 18:59:42;;;;;;;17.00;9.75;;;12.90;53.60;;;;;;4948488;29;20140;-82